Minerva, Texas
Current Conditions -  °F | °C
As of 12:35 PM on Sunday 23 Nov 2014 (Local Time) from KT35 Reporting Station
Clear Clear  
Wind Chill: 78°   Ceiling: Unl
Heat Index: 78°   Visibility: 10mi
Dew Point: 45°   Wind: 17mph
Humidity: 32%   Direction: 260°W
Pressure: 29.52"   Gusts: 26mph
Location:  30.6499°N, 96.9973°W
Report Text: KT35 231835Z AUTO 26015G23KT 10SM CLR 25/07 A2952 RMK AO2 T02530074
Loading
Personal Weather Stations






























Interactive Weather Map New forecast layout! Learn more

10-Day Weather Forecast

Advertisements
Track Severe Weather on mobile